Time;durP1;ratioP1;P1;durP2;ratioP2;P2;SDS_P1;SDS_P2;PMS_P1;PMS_P2;Temp;Humidity;BMP_temperature;BMP_pressure;BME280_temperature;BME280_humidity;BME280_pressure;Samples;Min_cycle;Max_cycle;Signal;HPM_P1;HPM_P2
2022/10/19 00:00:49;;;;;;;13.57;6.30;;;;;;;;;;5112375;28;20184;-69
2022/10/19 00:03:15;;;;;;;13.17;5.77;;;;;;;;;;5113739;28;20276;-69
2022/10/19 00:05:41;;;;;;;16.53;6.47;;;;;;;;;;5113655;28;20176;-69
2022/10/19 00:08:07;;;;;;;18.47;6.67;;;;;;;;;;5113780;28;20546;-69
2022/10/19 00:10:33;;;;;;;20.87;6.30;;;;;;;;;;5113632;28;20176;-69
2022/10/19 00:12:59;;;;;;;22.67;6.10;;;;;;;;;;5114280;28;20687;-69
2022/10/19 00:15:25;;;;;;;21.53;6.13;;;;;;;;;;5116688;28;20187;-69
2022/10/19 00:17:51;;;;;;;15.30;6.03;;;;;;;;;;5117237;28;20228;-69
2022/10/19 00:20:17;;;;;;;17.70;6.17;;;;;;;;;;5117480;28;20263;-69
2022/10/19 00:22:43;;;;;;;13.73;5.73;;;;;;;;;;5116853;28;20206;-69
2022/10/19 00:25:09;;;;;;;21.70;6.50;;;;;;;;;;5113924;28;20207;-69
2022/10/19 00:27:36;;;;;;;16.57;6.90;;;;;;;;;;5113754;28;20628;-69
2022/10/19 00:30:02;;;;;;;13.93;7.53;;;;;;;;;;5113818;28;20176;-69
2022/10/19 00:32:28;;;;;;;19.23;7.03;;;;;;;;;;5113562;28;20253;-69
2022/10/19 00:34:54;;;;;;;27.40;8.33;;;;;;;;;;5114253;28;20200;-69
2022/10/19 00:37:19;;;;;;;18.90;7.10;;;;;;;;;;5112106;28;20180;-69
2022/10/19 00:39:45;;;;;;;14.53;6.63;;;;;;;;;;5113448;28;20179;-69
2022/10/19 00:42:12;;;;;;;17.33;6.47;;;;;;;;;;5116220;28;20229;-69
2022/10/19 00:44:37;;;;;;;13.00;6.20;;;;;;;;;;5117406;28;20200;-69
2022/10/19 00:47:06;;;;;;;15.90;6.47;;;;;;;;;;5116103;28;20328;-67
2022/10/19 00:49:33;;;;;;;16.97;6.53;;;;;;;;;;5117402;28;20177;-69
2022/10/19 00:52:05;;;;;;;13.97;6.70;;;;;;;;;;5115967;28;20236;-70
2022/10/19 00:54:31;;;;;;;17.70;6.90;;;;;;;;;;5115692;28;20207;-69
2022/10/19 00:56:58;;;;;;;17.37;6.73;;;;;;;;;;5115778;28;20330;-69
2022/10/19 00:59:24;;;;;;;26.63;7.57;;;;;;;;;;5117342;28;20249;-69
2022/10/19 01:01:51;;;;;;;18.33;7.47;;;;;;;;;;5115473;28;20185;-69
2022/10/19 01:04:19;;;;;;;16.43;8.00;;;;;;;;;;5116941;28;20212;-69
2022/10/19 01:06:45;;;;;;;22.67;7.87;;;;;;;;;;5117141;28;20204;-69
2022/10/19 01:09:11;;;;;;;23.73;8.30;;;;;;;;;;5115744;28;20184;-69
2022/10/19 01:11:49;;;;;;;19.07;8.03;;;;;;;;;;5115999;28;20295;-69
2022/10/19 01:14:25;;;;;;;16.87;8.30;;;;;;;;;;5116501;28;20218;-69
2022/10/19 01:17:20;;;;;;;15.87;7.77;;;;;;;;;;5116427;28;20180;-69
2022/10/19 01:19:58;;;;;;;20.23;8.00;;;;;;;;;;5062309;28;20285;-70
2022/10/19 01:22:30;;;;;;;19.47;8.13;;;;;;;;;;5115612;28;20595;-68
2022/10/19 01:25:03;;;;;;;15.97;8.27;;;;;;;;;;5116996;28;20184;-69
2022/10/19 01:27:58;;;;;;;21.10;9.27;;;;;;;;;;5115531;28;20519;-69
2022/10/19 01:30:43;;;;;;;19.83;8.00;;;;;;;;;;5061486;28;20228;-70
2022/10/19 01:33:32;;;;;;;20.67;8.90;;;;;;;;;;5116402;28;20215;-69
2022/10/19 01:36:07;;;;;;;19.73;7.40;;;;;;;;;;5108364;28;20237;-69
2022/10/19 01:38:35;;;;;;;21.63;8.90;;;;;;;;;;5114929;28;20648;-69
2022/10/19 01:41:01;;;;;;;18.83;8.33;;;;;;;;;;5114775;28;20181;-69
2022/10/19 01:43:41;;;;;;;19.83;8.80;;;;;;;;;;5114884;28;20207;-69
2022/10/19 01:46:07;;;;;;;23.53;8.50;;;;;;;;;;5114849;28;20636;-69
2022/10/19 01:48:34;;;;;;;18.63;8.23;;;;;;;;;;5116455;28;20229;-70
2022/10/19 01:51:20;;;;;;;18.37;8.20;;;;;;;;;;5114877;28;20271;-68
2022/10/19 01:53:50;;;;;;;22.57;8.80;;;;;;;;;;5116196;28;20204;-69
2022/10/19 01:56:18;;;;;;;21.87;8.23;;;;;;;;;;5116803;28;20194;-69
2022/10/19 01:58:45;;;;;;;36.00;9.20;;;;;;;;;;5116819;28;20641;-67
2022/10/19 02:01:12;;;;;;;22.03;8.63;;;;;;;;;;5116751;28;20620;-69
2022/10/19 02:03:39;;;;;;;21.73;8.70;;;;;;;;;;5115333;28;20216;-70
2022/10/19 02:06:06;;;;;;;22.47;8.77;;;;;;;;;;5115913;28;20314;-68
2022/10/19 02:08:46;;;;;;;23.43;9.40;;;;;;;;;;5115777;28;20172;-68
2022/10/19 02:11:13;;;;;;;20.67;9.13;;;;;;;;;;5114591;28;20263;-69
2022/10/19 02:13:39;;;;;;;20.63;8.73;;;;;;;;;;5115661;28;20193;-68
2022/10/19 02:16:07;;;;;;;21.80;8.73;;;;;;;;;;5114326;28;20200;-68
2022/10/19 02:18:35;;;;;;;23.33;8.40;;;;;;;;;;5115794;28;20173;-68
2022/10/19 02:21:03;;;;;;;19.17;9.40;;;;;;;;;;5115695;28;20246;-68
2022/10/19 02:23:29;;;;;;;15.67;8.50;;;;;;;;;;5113816;28;20197;-70
2022/10/19 02:25:55;;;;;;;20.30;9.13;;;;;;;;;;5115667;28;20187;-68
2022/10/19 02:28:22;;;;;;;17.73;9.37;;;;;;;;;;5115511;28;20187;-68
2022/10/19 02:30:48;;;;;;;19.33;9.13;;;;;;;;;;5115186;28;20259;-69
2022/10/19 02:33:14;;;;;;;21.23;9.17;;;;;;;;;;5114978;28;20278;-68
2022/10/19 02:35:40;;;;;;;19.37;9.13;;;;;;;;;;5115069;28;20242;-68
2022/10/19 02:38:06;;;;;;;18.57;8.93;;;;;;;;;;5115204;28;20550;-68
2022/10/19 02:40:35;;;;;;;19.53;8.90;;;;;;;;;;5115221;28;20172;-68
2022/10/19 02:43:04;;;;;;;19.10;9.03;;;;;;;;;;5115135;28;20214;-68
2022/10/19 02:45:32;;;;;;;17.43;9.30;;;;;;;;;;5113698;28;20184;-68
2022/10/19 02:48:07;;;;;;;20.30;9.07;;;;;;;;;;5114768;28;20182;-68
2022/10/19 02:50:33;;;;;;;26.70;9.40;;;;;;;;;;5115351;28;20179;-68
2022/10/19 02:52:59;;;;;;;25.47;9.47;;;;;;;;;;5113347;28;20220;-69
2022/10/19 02:55:25;;;;;;;18.57;9.23;;;;;;;;;;5113515;28;20181;-68
2022/10/19 02:57:52;;;;;;;21.73;9.13;;;;;;;;;;5113335;28;20180;-68
2022/10/19 03:00:18;;;;;;;19.80;9.47;;;;;;;;;;5114624;28;20317;-68
2022/10/19 03:02:44;;;;;;;20.70;9.30;;;;;;;;;;5112942;28;20220;-69
2022/10/19 03:05:10;;;;;;;19.00;10.13;;;;;;;;;;5113228;28;20180;-68
2022/10/19 03:07:36;;;;;;;21.53;9.73;;;;;;;;;;5113142;28;20197;-68
2022/10/19 03:10:02;;;;;;;24.20;10.23;;;;;;;;;;5113234;28;20183;-71
2022/10/19 03:12:28;;;;;;;21.40;10.23;;;;;;;;;;5114399;28;20228;-70
2022/10/19 03:14:54;;;;;;;21.83;10.50;;;;;;;;;;5113201;28;20655;-71
2022/10/19 03:17:20;;;;;;;25.87;10.20;;;;;;;;;;5114456;28;20692;-71
2022/10/19 03:19:46;;;;;;;27.17;10.93;;;;;;;;;;5113016;28;20598;-70
2022/10/19 03:22:13;;;;;;;22.67;10.80;;;;;;;;;;5114253;28;20176;-70
2022/10/19 03:24:39;;;;;;;30.27;11.53;;;;;;;;;;5136070;22;20597;-68
2022/10/19 03:27:05;;;;;;;24.70;10.77;;;;;;;;;;5113967;28;20185;-71
2022/10/19 03:29:31;;;;;;;20.73;10.93;;;;;;;;;;5113140;28;20225;-67
2022/10/19 03:31:57;;;;;;;24.40;10.77;;;;;;;;;;5113150;28;20204;-67
2022/10/19 03:34:23;;;;;;;23.60;11.47;;;;;;;;;;5114455;28;20244;-67
2022/10/19 03:36:49;;;;;;;27.93;12.10;;;;;;;;;;5113173;28;20172;-67
2022/10/19 03:39:16;;;;;;;28.90;11.23;;;;;;;;;;5114368;27;20183;-67
2022/10/19 03:41:42;;;;;;;31.70;12.47;;;;;;;;;;5114659;28;20176;-66
2022/10/19 03:44:09;;;;;;;26.67;12.07;;;;;;;;;;5114001;28;20199;-67
2022/10/19 03:46:35;;;;;;;24.83;12.17;;;;;;;;;;5114184;28;20693;-68
2022/10/19 03:49:01;;;;;;;26.50;11.63;;;;;;;;;;5114120;28;20184;-67
2022/10/19 03:51:28;;;;;;;21.43;11.90;;;;;;;;;;5112816;28;20182;-67
2022/10/19 03:53:55;;;;;;;26.07;11.53;;;;;;;;;;5113852;28;20614;-68
2022/10/19 03:56:22;;;;;;;26.13;12.73;;;;;;;;;;5113884;28;20218;-68
2022/10/19 03:58:49;;;;;;;26.67;12.50;;;;;;;;;;5112963;28;20176;-67
2022/10/19 04:01:16;;;;;;;22.90;11.83;;;;;;;;;;5114093;28;20176;-67
2022/10/19 04:03:42;;;;;;;23.50;11.97;;;;;;;;;;5112611;28;20529;-67
2022/10/19 04:06:09;;;;;;;19.93;12.17;;;;;;;;;;5114420;28;20177;-68
2022/10/19 04:08:35;;;;;;;21.03;11.07;;;;;;;;;;5113754;28;20229;-67
2022/10/19 04:11:02;;;;;;;22.10;12.00;;;;;;;;;;5113676;28;20173;-68
2022/10/19 04:13:28;;;;;;;23.40;12.47;;;;;;;;;;5112316;28;20208;-64
2022/10/19 04:15:54;;;;;;;31.60;13.57;;;;;;;;;;5113179;28;20176;-67
2022/10/19 04:18:20;;;;;;;22.17;12.57;;;;;;;;;;5113657;28;20184;-67
2022/10/19 04:20:46;;;;;;;24.57;13.13;;;;;;;;;;5113596;28;20184;-67
2022/10/19 04:23:12;;;;;;;25.57;13.47;;;;;;;;;;5114122;28;20183;-67
2022/10/19 04:25:38;;;;;;;24.07;14.63;;;;;;;;;;5131605;28;20691;-67
2022/10/19 04:28:04;;;;;;;25.53;14.00;;;;;;;;;;5132876;28;20647;-67
2022/10/19 04:30:30;;;;;;;30.40;14.97;;;;;;;;;;5132826;28;20224;-67
2022/10/19 04:32:56;;;;;;;22.43;14.00;;;;;;;;;;5132904;28;20207;-67
2022/10/19 04:35:22;;;;;;;28.13;13.73;;;;;;;;;;5134301;28;20552;-66
2022/10/19 04:37:48;;;;;;;28.43;14.30;;;;;;;;;;5134223;28;20174;-67
2022/10/19 04:40:14;;;;;;;20.13;13.50;;;;;;;;;;5134141;28;20168;-66
2022/10/19 04:42:40;;;;;;;22.97;14.63;;;;;;;;;;5133339;28;20216;-67
2022/10/19 04:45:06;;;;;;;27.43;14.10;;;;;;;;;;5132930;28;20230;-66
2022/10/19 04:47:32;;;;;;;25.93;14.60;;;;;;;;;;5133063;28;20236;-68
2022/10/19 04:49:58;;;;;;;25.57;13.90;;;;;;;;;;5134707;28;20176;-67
2022/10/19 04:52:24;;;;;;;28.63;14.57;;;;;;;;;;5134833;28;20227;-66
2022/10/19 04:54:50;;;;;;;26.83;14.90;;;;;;;;;;5133198;28;20200;-66
2022/10/19 04:57:15;;;;;;;29.20;15.50;;;;;;;;;;5133293;28;20708;-68
2022/10/19 04:59:41;;;;;;;26.23;16.10;;;;;;;;;;5133002;28;20317;-67
2022/10/19 05:02:07;;;;;;;30.40;15.97;;;;;;;;;;5132622;28;20219;-67
2022/10/19 05:04:33;;;;;;;29.80;16.50;;;;;;;;;;5133679;28;20196;-68
2022/10/19 05:06:59;;;;;;;30.60;15.57;;;;;;;;;;5133864;28;20179;-67
2022/10/19 05:09:25;;;;;;;25.70;17.43;;;;;;;;;;5133936;28;20180;-67
2022/10/19 05:11:51;;;;;;;32.13;17.60;;;;;;;;;;5133583;28;20299;-66
2022/10/19 05:14:17;;;;;;;30.60;17.50;;;;;;;;;;5133992;28;20215;-67
2022/10/19 05:16:43;;;;;;;31.57;17.10;;;;;;;;;;5133679;28;20523;-65
2022/10/19 05:19:13;;;;;;;32.83;17.10;;;;;;;;;;5133648;28;20254;-68
2022/10/19 05:21:39;;;;;;;37.23;16.77;;;;;;;;;;5133648;28;20207;-67
2022/10/19 05:24:05;;;;;;;38.37;17.20;;;;;;;;;;5133441;28;20235;-68
2022/10/19 05:26:31;;;;;;;35.60;16.67;;;;;;;;;;5134163;27;20219;-67
2022/10/19 05:29:00;;;;;;;29.67;16.97;;;;;;;;;;5136854;27;20180;-67
2022/10/19 05:31:27;;;;;;;30.70;16.50;;;;;;;;;;5135729;27;20579;-68
2022/10/19 05:33:55;;;;;;;40.03;18.30;;;;;;;;;;5137195;27;20196;-66
2022/10/19 05:36:26;;;;;;;32.87;17.83;;;;;;;;;;5137093;27;20182;-68
2022/10/19 05:38:53;;;;;;;30.20;16.57;;;;;;;;;;5135695;27;20187;-67
2022/10/19 05:41:20;;;;;;;32.13;17.53;;;;;;;;;;5137265;27;20176;-68
2022/10/19 05:43:46;;;;;;;43.13;18.23;;;;;;;;;;5137200;27;20183;-67
2022/10/19 05:46:16;;;;;;;28.97;15.80;;;;;;;;;;5136872;27;20176;-67
2022/10/19 05:48:42;;;;;;;32.07;16.50;;;;;;;;;;5136927;27;20748;-66
2022/10/19 05:51:09;;;;;;;30.97;17.20;;;;;;;;;;5137140;27;20620;-67
2022/10/19 05:53:35;;;;;;;30.30;16.80;;;;;;;;;;5135346;27;20204;-67
2022/10/19 05:56:04;;;;;;;24.90;17.17;;;;;;;;;;5135615;27;20183;-67
2022/10/19 05:58:30;;;;;;;34.77;18.90;;;;;;;;;;5136819;27;20164;-68
2022/10/19 06:00:56;;;;;;;31.80;17.47;;;;;;;;;;5136693;27;20182;-68
2022/10/19 06:03:23;;;;;;;39.47;18.00;;;;;;;;;;5136663;27;20649;-66
2022/10/19 06:05:49;;;;;;;36.30;18.00;;;;;;;;;;5136379;27;20626;-67
2022/10/19 06:08:16;;;;;;;34.97;18.27;;;;;;;;;;5136913;27;20261;-67
2022/10/19 06:10:42;;;;;;;33.13;18.40;;;;;;;;;;5136651;27;20225;-66
2022/10/19 06:13:08;;;;;;;30.03;18.57;;;;;;;;;;5136569;27;20199;-67
2022/10/19 06:15:35;;;;;;;28.93;17.17;;;;;;;;;;5136277;27;20192;-67
2022/10/19 06:18:03;;;;;;;38.27;18.50;;;;;;;;;;5135225;27;20182;-67
2022/10/19 06:20:29;;;;;;;26.50;16.70;;;;;;;;;;5135042;27;20191;-67
2022/10/19 06:22:55;;;;;;;33.07;18.57;;;;;;;;;;5136465;27;20184;-67
2022/10/19 06:25:21;;;;;;;30.27;17.63;;;;;;;;;;5136182;27;20211;-67
2022/10/19 06:27:47;;;;;;;27.17;17.60;;;;;;;;;;5136158;27;20187;-67
2022/10/19 06:30:13;;;;;;;32.13;17.97;;;;;;;;;;5136402;27;20176;-68
2022/10/19 06:32:39;;;;;;;30.70;17.47;;;;;;;;;;5136200;27;20210;-67
2022/10/19 06:35:05;;;;;;;26.27;17.23;;;;;;;;;;5136088;27;20271;-66
2022/10/19 06:37:31;;;;;;;30.27;17.93;;;;;;;;;;5135963;27;20180;-70
2022/10/19 06:39:57;;;;;;;37.93;19.43;;;;;;;;;;5136273;27;20183;-73
2022/10/19 06:42:23;;;;;;;35.73;18.67;;;;;;;;;;5134685;27;20190;-67
2022/10/19 06:44:49;;;;;;;33.13;19.93;;;;;;;;;;5135875;27;20244;-68
2022/10/19 06:47:15;;;;;;;28.97;18.73;;;;;;;;;;5134851;27;20666;-68
2022/10/19 06:49:40;;;;;;;32.70;18.90;;;;;;;;;;5134671;27;20553;-68
2022/10/19 06:52:07;;;;;;;35.67;20.47;;;;;;;;;;5135521;27;20195;-67
2022/10/19 06:54:33;;;;;;;36.83;19.93;;;;;;;;;;5135935;27;20188;-67
2022/10/19 06:56:59;;;;;;;38.43;20.87;;;;;;;;;;5136302;27;20179;-67
2022/10/19 06:59:25;;;;;;;37.73;19.80;;;;;;;;;;5134305;27;20202;-70
2022/10/19 07:01:51;;;;;;;33.47;20.80;;;;;;;;;;5135539;27;20627;-67
2022/10/19 07:04:17;;;;;;;27.43;20.53;;;;;;;;;;5135341;27;20204;-68
2022/10/19 07:06:43;;;;;;;32.83;21.20;;;;;;;;;;5135622;27;20175;-67
2022/10/19 07:09:09;;;;;;;33.73;21.50;;;;;;;;;;5135284;27;20179;-67
2022/10/19 07:11:35;;;;;;;34.70;22.43;;;;;;;;;;5135573;27;20211;-67
2022/10/19 07:14:01;;;;;;;39.50;21.13;;;;;;;;;;5135654;27;20192;-68
2022/10/19 07:16:27;;;;;;;30.63;20.23;;;;;;;;;;5135186;27;20252;-68
2022/10/19 07:18:53;;;;;;;34.80;19.70;;;;;;;;;;5133883;27;20211;-67
2022/10/19 07:21:20;;;;;;;34.20;22.03;;;;;;;;;;5135019;27;20178;-68
2022/10/19 07:23:46;;;;;;;37.93;21.67;;;;;;;;;;5135124;27;20211;-68
2022/10/19 07:26:25;;;;;;;35.03;21.23;;;;;;;;;;5135523;27;20689;-67
2022/10/19 07:28:51;;;;;;;39.50;22.67;;;;;;;;;;5134969;27;20175;-66
2022/10/19 07:31:19;;;;;;;36.23;21.00;;;;;;;;;;5133497;27;20236;-65
2022/10/19 07:33:45;;;;;;;29.70;20.17;;;;;;;;;;5135240;27;20171;-67
2022/10/19 07:36:12;;;;;;;31.27;22.20;;;;;;;;;;5133445;27;20658;-68
2022/10/19 07:38:38;;;;;;;31.83;20.00;;;;;;;;;;5134927;27;20175;-66
2022/10/19 07:41:05;;;;;;;28.27;19.63;;;;;;;;;;5133347;27;20180;-66
2022/10/19 07:43:31;;;;;;;31.60;18.40;;;;;;;;;;5134511;27;20176;-67
2022/10/19 07:45:58;;;;;;;26.27;17.53;;;;;;;;;;5134801;27;20616;-67
2022/10/19 07:48:24;;;;;;;24.97;15.60;;;;;;;;;;5135307;27;20520;-67
2022/10/19 07:50:50;;;;;;;25.10;15.07;;;;;;;;;;5132433;27;20180;-67
2022/10/19 07:53:16;;;;;;;23.70;14.13;;;;;;;;;;5134499;27;20756;-67
2022/10/19 07:55:42;;;;;;;24.13;15.03;;;;;;;;;;5134385;27;20755;-67
2022/10/19 07:58:08;;;;;;;17.77;14.10;;;;;;;;;;5134326;27;20530;-67
2022/10/19 08:00:34;;;;;;;23.87;15.10;;;;;;;;;;5134336;27;20644;-67
2022/10/19 08:03:00;;;;;;;22.30;13.43;;;;;;;;;;5133052;27;20644;-66
2022/10/19 08:05:26;;;;;;;26.27;14.47;;;;;;;;;;5132705;27;20678;-67
2022/10/19 08:07:52;;;;;;;22.57;13.23;;;;;;;;;;5134304;27;20171;-66
2022/10/19 08:10:18;;;;;;;18.73;12.87;;;;;;;;;;5134280;27;20256;-68
2022/10/19 08:12:44;;;;;;;22.13;12.33;;;;;;;;;;5132900;27;20252;-67
2022/10/19 08:15:10;;;;;;;21.30;13.00;;;;;;;;;;5134117;28;20626;-67
2022/10/19 08:17:36;;;;;;;22.20;12.70;;;;;;;;;;5133218;28;20599;-67
2022/10/19 08:20:02;;;;;;;18.67;12.97;;;;;;;;;;5134133;28;20197;-67
2022/10/19 08:22:28;;;;;;;20.50;12.30;;;;;;;;;;5134127;28;20251;-66
2022/10/19 08:24:54;;;;;;;21.53;11.53;;;;;;;;;;5132638;28;20658;-67
2022/10/19 08:27:20;;;;;;;15.53;11.67;;;;;;;;;;5134019;28;20183;-66
2022/10/19 08:29:46;;;;;;;16.00;11.50;;;;;;;;;;5132736;28;20187;-66
2022/10/19 08:32:12;;;;;;;19.30;11.60;;;;;;;;;;5133902;28;20206;-66
2022/10/19 08:34:38;;;;;;;21.33;12.53;;;;;;;;;;5132667;28;20195;-66
2022/10/19 08:37:04;;;;;;;22.13;12.67;;;;;;;;;;5134180;28;20170;-68
2022/10/19 08:39:30;;;;;;;21.23;11.97;;;;;;;;;;5133982;28;20267;-67
2022/10/19 08:42:15;;;;;;;19.00;10.57;;;;;;;;;;5134230;28;20265;-67
2022/10/19 08:45:00;;;;;;;18.40;11.23;;;;;;;;;;5132555;28;20199;-67
2022/10/19 08:47:35;;;;;;;19.77;10.93;;;;;;;;;;5132882;28;20187;-67
2022/10/19 08:50:01;;;;;;;20.23;11.23;;;;;;;;;;5133951;28;20228;-66
2022/10/19 08:52:30;;;;;;;22.30;9.77;;;;;;;;;;5132501;28;20764;-67
2022/10/19 08:54:58;;;;;;;24.77;10.37;;;;;;;;;;5133721;28;20192;-66
2022/10/19 08:57:38;;;;;;;17.00;10.40;;;;;;;;;;5134075;28;20204;-66
2022/10/19 09:00:24;;;;;;;16.33;9.60;;;;;;;;;;5133870;28;20243;-66
2022/10/19 09:02:53;;;;;;;20.03;9.87;;;;;;;;;;5137525;27;20174;-67
2022/10/19 09:05:37;;;;;;;18.40;9.20;;;;;;;;;;5137621;27;20199;-67
2022/10/19 09:08:03;;;;;;;20.73;9.57;;;;;;;;;;5138076;27;20631;-67
2022/10/19 09:10:32;;;;;;;17.73;9.67;;;;;;;;;;5139167;27;20228;-67
2022/10/19 09:13:00;;;;;;;14.23;8.63;;;;;;;;;;5137007;27;20207;-66
2022/10/19 09:15:47;;;;;;;16.53;8.30;;;;;;;;;;5137775;27;20609;-67
2022/10/19 09:18:23;;;;;;;16.50;9.27;;;;;;;;;;5137812;27;20180;-67
2022/10/19 09:20:51;;;;;;;17.03;6.80;;;;;;;;;;5137444;27;20250;-66
2022/10/19 09:23:20;;;;;;;12.17;6.30;;;;;;;;;;5137386;27;20191;-66
2022/10/19 09:25:48;;;;;;;16.37;6.47;;;;;;;;;;5137162;27;20348;-64
2022/10/19 09:28:18;;;;;;;15.73;5.70;;;;;;;;;;5135987;27;20191;-67
2022/10/19 09:30:46;;;;;;;11.70;5.30;;;;;;;;;;5137274;27;20639;-68
2022/10/19 09:33:16;;;;;;;12.53;5.60;;;;;;;;;;5151608;22;20227;-70
2022/10/19 09:35:43;;;;;;;10.87;5.90;;;;;;;;;;5118764;27;20175;-69
2022/10/19 09:38:11;;;;;;;12.03;5.47;;;;;;;;;;5137200;27;20172;-70
2022/10/19 09:40:37;;;;;;;13.50;6.30;;;;;;;;;;5137495;27;20202;-69
2022/10/19 09:43:18;;;;;;;9.63;5.93;;;;;;;;;;5136905;27;20227;-69
2022/10/19 09:45:50;;;;;;;13.03;6.27;;;;;;;;;;5118678;27;20172;-70
2022/10/19 09:48:23;;;;;;;13.90;6.80;;;;;;;;;;5137027;27;20179;-68
2022/10/19 09:50:52;;;;;;;8.93;5.70;;;;;;;;;;5118500;27;20172;-69
2022/10/19 09:53:20;;;;;;;15.77;6.80;;;;;;;;;;5118292;27;20654;-69
2022/10/19 09:55:58;;;;;;;13.53;5.90;;;;;;;;;;5137245;27;20176;-70
2022/10/19 09:58:25;;;;;;;10.13;5.83;;;;;;;;;;5118447;27;20178;-68
2022/10/19 10:00:55;;;;;;;10.70;5.40;;;;;;;;;;5118313;27;20179;-69
2022/10/19 10:03:42;;;;;;;11.73;5.20;;;;;;;;;;5136722;27;20619;-68
2022/10/19 10:06:15;;;;;;;9.67;4.80;;;;;;;;;;5118306;27;20606;-68
2022/10/19 10:08:59;;;;;;;8.43;4.73;;;;;;;;;;5118058;27;20564;-68
2022/10/19 10:11:27;;;;;;;7.37;4.00;;;;;;;;;;5117996;27;20221;-68
2022/10/19 10:13:54;;;;;;;10.17;4.27;;;;;;;;;;5135608;27;20196;-67
2022/10/19 10:16:21;;;;;;;7.50;3.97;;;;;;;;;;5136409;27;20220;-70
2022/10/19 10:18:55;;;;;;;8.97;3.03;;;;;;;;;;5117971;27;20209;-68
2022/10/19 10:21:21;;;;;;;11.13;3.43;;;;;;;;;;5136122;27;20176;-68
2022/10/19 10:24:06;;;;;;;4.73;2.40;;;;;;;;;;5117665;27;20200;-69
2022/10/19 10:26:37;;;;;;;4.50;2.50;;;;;;;;;;5117694;27;20176;-69
2022/10/19 10:29:15;;;;;;;8.60;2.90;;;;;;;;;;5117625;27;20236;-69
2022/10/19 10:31:41;;;;;;;6.53;2.20;;;;;;;;;;5136212;27;20686;-69
2022/10/19 10:34:11;;;;;;;4.57;2.00;;;;;;;;;;5135638;27;20294;-69
2022/10/19 10:36:37;;;;;;;7.13;2.40;;;;;;;;;;5135785;27;20644;-70
2022/10/19 10:39:07;;;;;;;7.10;2.80;;;;;;;;;;5135819;27;20180;-69
2022/10/19 10:41:42;;;;;;;5.93;2.33;;;;;;;;;;5135767;27;20183;-69
2022/10/19 10:44:15;;;;;;;8.63;2.27;;;;;;;;;;5117270;27;20191;-69
2022/10/19 10:47:01;;;;;;;7.13;2.70;;;;;;;;;;5117172;27;20255;-68
2022/10/19 10:49:29;;;;;;;8.40;3.03;;;;;;;;;;5117066;27;20176;-68
2022/10/19 10:51:56;;;;;;;9.40;2.60;;;;;;;;;;5116913;27;20208;-69
2022/10/19 10:54:27;;;;;;;6.23;1.80;;;;;;;;;;5117211;27;20172;-70
2022/10/19 10:57:10;;;;;;;5.80;2.10;;;;;;;;;;5116983;27;20232;-69
2022/10/19 10:59:41;;;;;;;6.67;2.37;;;;;;;;;;5116907;27;20202;-69
2022/10/19 11:02:25;;;;;;;8.03;2.80;;;;;;;;;;5117093;27;20598;-69
2022/10/19 11:04:59;;;;;;;4.80;2.20;;;;;;;;;;5135333;27;20197;-69
2022/10/19 11:07:26;;;;;;;5.13;1.73;;;;;;;;;;5135756;27;20156;-69
2022/10/19 11:09:53;;;;;;;4.50;2.23;;;;;;;;;;5135412;27;20255;-69
2022/10/19 11:12:23;;;;;;;7.73;2.50;;;;;;;;;;5134890;27;20207;-69
2022/10/19 11:14:53;;;;;;;5.70;2.00;;;;;;;;;;5135201;27;20590;-69
2022/10/19 11:17:25;;;;;;;4.50;2.00;;;;;;;;;;5135244;27;20267;-69
2022/10/19 11:19:51;;;;;;;6.27;2.30;;;;;;;;;;5134901;27;20215;-68
2022/10/19 11:22:23;;;;;;;5.93;2.17;;;;;;;;;;5135208;27;20253;-69
2022/10/19 11:24:55;;;;;;;6.13;2.03;;;;;;;;;;5135172;27;20203;-69
2022/10/19 11:27:21;;;;;;;5.70;1.60;;;;;;;;;;5116577;27;20270;-69
2022/10/19 11:29:56;;;;;;;6.63;2.03;;;;;;;;;;5116494;27;20211;-69
2022/10/19 11:32:22;;;;;;;9.40;2.90;;;;;;;;;;5136066;27;20628;-69
2022/10/19 11:35:11;;;;;;;4.53;1.80;;;;;;;;;;5135694;27;20172;-69
2022/10/19 11:37:43;;;;;;;4.97;2.40;;;;;;;;;;5125248;27;20192;-69
2022/10/19 11:40:29;;;;;;;6.60;2.50;;;;;;;;;;5116178;27;20176;-69
2022/10/19 11:43:09;;;;;;;4.03;1.90;;;;;;;;;;5116170;27;20263;-69
2022/10/19 11:45:54;;;;;;;4.87;2.00;;;;;;;;;;5134551;27;20171;-69
2022/10/19 11:48:27;;;;;;;5.07;2.03;;;;;;;;;;5116039;27;20167;-69
2022/10/19 11:50:54;;;;;;;5.53;2.13;;;;;;;;;;5134491;27;20172;-69
2022/10/19 11:53:28;;;;;;;7.67;2.27;;;;;;;;;;5115492;27;20215;-69
2022/10/19 11:56:18;;;;;;;8.20;2.03;;;;;;;;;;5116951;27;20199;-69
2022/10/19 11:58:48;;;;;;;5.53;2.10;;;;;;;;;;5134251;27;20206;-68
2022/10/19 12:01:20;;;;;;;8.77;2.27;;;;;;;;;;5115650;27;20284;-69
2022/10/19 12:04:05;;;;;;;5.27;2.57;;;;;;;;;;5134236;27;20199;-69
2022/10/19 12:06:31;;;;;;;10.07;2.80;;;;;;;;;;5134359;27;20182;-69
2022/10/19 12:08:57;;;;;;;7.70;2.70;;;;;;;;;;5134101;27;20208;-69
2022/10/19 12:11:32;;;;;;;5.57;2.43;;;;;;;;;;5115665;27;20283;-69
2022/10/19 12:14:05;;;;;;;5.87;2.90;;;;;;;;;;5115474;28;20226;-69
2022/10/19 12:16:43;;;;;;;5.17;2.30;;;;;;;;;;5115693;28;20186;-69
2022/10/19 12:19:14;;;;;;;3.27;2.23;;;;;;;;;;5115525;28;20232;-69
2022/10/19 12:21:44;;;;;;;5.00;2.30;;;;;;;;;;5134075;28;20160;-69
2022/10/19 12:24:18;;;;;;;8.80;2.97;;;;;;;;;;5136404;28;20199;-69
2022/10/19 12:26:44;;;;;;;10.57;2.77;;;;;;;;;;5119647;28;20186;-70
2022/10/19 12:29:15;;;;;;;6.27;2.70;;;;;;;;;;5119389;28;20182;-69
2022/10/19 12:31:42;;;;;;;4.37;1.53;;;;;;;;;;5137788;28;20549;-70
2022/10/19 12:34:14;;;;;;;8.23;2.50;;;;;;;;;;5135886;28;20215;-69
2022/10/19 12:36:40;;;;;;;9.27;2.47;;;;;;;;;;5117170;27;20631;-69
2022/10/19 12:39:12;;;;;;;8.63;2.33;;;;;;;;;;5137915;27;20182;-69
2022/10/19 12:41:51;;;;;;;6.53;2.50;;;;;;;;;;5137889;27;20250;-69
2022/10/19 12:44:35;;;;;;;6.43;2.70;;;;;;;;;;5138414;27;20160;-68
2022/10/19 12:47:21;;;;;;;4.37;1.97;;;;;;;;;;5138067;27;20168;-69
2022/10/19 12:49:50;;;;;;;4.27;1.80;;;;;;;;;;5138072;27;20172;-68
2022/10/19 12:52:36;;;;;;;7.03;2.20;;;;;;;;;;5119426;27;20226;-69
2022/10/19 12:55:14;;;;;;;5.60;2.10;;;;;;;;;;5137730;27;20175;-69
2022/10/19 12:57:42;;;;;;;5.47;2.13;;;;;;;;;;5119248;27;20175;-69
2022/10/19 13:00:21;;;;;;;8.07;2.30;;;;;;;;;;5137647;27;20631;-69
2022/10/19 13:02:56;;;;;;;6.10;2.57;;;;;;;;;;5137514;27;20196;-69
2022/10/19 13:05:26;;;;;;;4.80;2.10;;;;;;;;;;5138018;27;20194;-69
2022/10/19 13:07:52;;;;;;;7.20;2.23;;;;;;;;;;5118959;27;20654;-69
2022/10/19 13:10:19;;;;;;;6.77;2.20;;;;;;;;;;5119064;27;20187;-70
2022/10/19 13:12:46;;;;;;;7.20;2.03;;;;;;;;;;5137233;27;20246;-69
2022/10/19 13:15:30;;;;;;;4.10;2.00;;;;;;;;;;5137400;27;20206;-69
2022/10/19 13:17:56;;;;;;;9.17;2.10;;;;;;;;;;5137483;27;20255;-70
2022/10/19 13:20:26;;;;;;;5.00;1.93;;;;;;;;;;5118701;27;20207;-69
2022/10/19 13:22:58;;;;;;;4.13;2.10;;;;;;;;;;5137237;27;20224;-69
2022/10/19 13:25:27;;;;;;;4.10;2.00;;;;;;;;;;5118629;27;20184;-69
2022/10/19 13:27:54;;;;;;;10.03;2.30;;;;;;;;;;5137061;27;20182;-69
2022/10/19 13:30:38;;;;;;;9.10;2.73;;;;;;;;;;5137017;27;20176;-69
2022/10/19 13:33:23;;;;;;;5.60;1.87;;;;;;;;;;5136764;27;20220;-69
2022/10/19 13:36:05;;;;;;;3.37;1.90;;;;;;;;;;5118423;27;20176;-69
2022/10/19 13:38:42;;;;;;;5.90;2.20;;;;;;;;;;5137267;27;20160;-69
2022/10/19 13:41:11;;;;;;;6.50;2.60;;;;;;;;;;5118503;27;20179;-69
2022/10/19 13:43:39;;;;;;;5.70;2.03;;;;;;;;;;5136673;27;20199;-69
2022/10/19 13:46:05;;;;;;;7.83;2.20;;;;;;;;;;5136738;27;20623;-69
2022/10/19 13:48:37;;;;;;;5.93;1.90;;;;;;;;;;5116990;27;20215;-69
2022/10/19 13:51:26;;;;;;;5.13;2.00;;;;;;;;;;5137054;27;20184;-69
2022/10/19 13:54:07;;;;;;;4.63;1.87;;;;;;;;;;5118013;27;20215;-69
2022/10/19 13:56:56;;;;;;;7.03;1.70;;;;;;;;;;5118155;27;20183;-69
2022/10/19 13:59:41;;;;;;;6.00;1.90;;;;;;;;;;5136636;27;20186;-69
2022/10/19 14:02:15;;;;;;;4.03;2.07;;;;;;;;;;5136607;27;20218;-68
2022/10/19 14:04:51;;;;;;;4.27;1.63;;;;;;;;;;5136543;27;20175;-69
2022/10/19 14:07:24;;;;;;;4.47;1.90;;;;;;;;;;5136442;27;20536;-69
2022/10/19 14:09:59;;;;;;;4.80;1.70;;;;;;;;;;5118055;27;20228;-69
2022/10/19 14:12:27;;;;;;;8.83;1.93;;;;;;;;;;5136610;27;20221;-69
2022/10/19 14:14:53;;;;;;;3.70;1.77;;;;;;;;;;5136142;27;20182;-69
2022/10/19 14:17:23;;;;;;;5.50;1.90;;;;;;;;;;5136283;27;20167;-69
2022/10/19 14:19:52;;;;;;;4.20;2.17;;;;;;;;;;5141063;27;20174;-69
2022/10/19 14:22:34;;;;;;;5.47;2.03;;;;;;;;;;5142314;27;20198;-69
2022/10/19 14:25:06;;;;;;;3.93;2.07;;;;;;;;;;5141072;27;20171;-69
2022/10/19 14:27:32;;;;;;;7.97;2.27;;;;;;;;;;5140261;27;20178;-70
2022/10/19 14:29:58;;;;;;;5.53;1.63;;;;;;;;;;5136256;27;20244;-69
2022/10/19 14:32:26;;;;;;;6.87;2.10;;;;;;;;;;5136069;27;20290;-71
2022/10/19 14:34:53;;;;;;;6.50;2.53;;;;;;;;;;5136447;27;20204;-68
2022/10/19 14:37:21;;;;;;;6.23;2.63;;;;;;;;;;5136607;27;20164;-69
2022/10/19 14:39:57;;;;;;;5.50;2.43;;;;;;;;;;5135958;27;20180;-69
2022/10/19 14:42:23;;;;;;;3.00;2.20;;;;;;;;;;5136053;27;20203;-69